createdAt,value
2014-08-25T00:00:05.616Z,65.42
2014-08-25T00:01:10.290Z,65.38
2014-08-25T00:02:15.276Z,65.52
2014-08-25T00:03:19.966Z,65.11
2014-08-25T00:04:24.640Z,64.9
2014-08-25T00:05:29.330Z,65.7
2014-08-25T00:06:34.003Z,66.1
2014-08-25T00:07:38.693Z,66.68
2014-08-25T00:08:43.383Z,66.28
2014-08-25T00:09:48.073Z,65.38
2014-08-25T00:10:53.043Z,64.91
2014-08-25T00:11:57.732Z,65.32
2014-08-25T00:13:02.421Z,66.02
2014-08-25T00:14:07.096Z,66.55
2014-08-25T00:15:11.770Z,66.71
2014-08-25T00:16:16.460Z,66.3
2014-08-25T00:17:21.133Z,66.05
2014-08-25T00:18:26.120Z,66.66
2014-08-25T00:19:30.794Z,66.48
2014-08-25T00:20:35.484Z,65.98
2014-08-25T00:21:40.157Z,66.61
2014-08-25T00:22:45.128Z,66.65
2014-08-25T00:23:50.115Z,66.56
2014-08-25T00:24:54.788Z,66.52
2014-08-25T00:25:59.478Z,66.37
2014-08-25T00:27:04.152Z,66.14
2014-08-25T00:28:09.420Z,66.25
2014-08-25T00:29:14.110Z,66.79
2014-08-25T00:30:19.096Z,66.41
2014-08-25T00:31:23.777Z,65.8
2014-08-25T00:32:28.800Z,65.51
2014-08-25T00:33:33.510Z,65.39
2014-08-25T00:34:38.815Z,65.07
2014-08-25T00:35:43.541Z,66.02
2014-08-25T00:36:48.535Z,66.6
2014-08-25T00:37:53.534Z,67.29
2014-08-25T00:38:58.238Z,67.29
2014-08-25T00:40:03.222Z,68.1
2014-08-25T00:41:07.925Z,68.07
2014-08-25T00:42:12.603Z,67.58
2014-08-25T00:43:17.891Z,67.41
2014-08-25T00:44:22.867Z,67.47
2014-08-25T00:45:27.545Z,67.07
2014-08-25T00:46:32.535Z,67.1
2014-08-25T00:47:37.508Z,67.1
2014-08-25T00:48:42.198Z,66.89
2014-08-25T00:49:46.874Z,66.75
2014-08-25T00:50:51.566Z,67.44
2014-08-25T00:51:56.241Z,67.21
2014-08-25T00:53:00.932Z,67.29
2014-08-25T00:54:05.606Z,67.24
2014-08-25T00:55:10.297Z,67.61
2014-08-25T00:56:14.971Z,66.32
2014-08-25T00:57:19.958Z,65.88
2014-08-25T00:58:24.632Z,65.58
2014-08-25T00:59:29.916Z,67.65
2014-08-25T01:00:34.887Z,66.39
2014-08-25T01:01:39.577Z,66.15
2014-08-25T01:02:44.564Z,65.71
2014-08-25T01:03:49.535Z,65.24
2014-08-25T01:04:54.521Z,65.55
2014-08-25T01:05:59.196Z,65.08
2014-08-25T01:07:04.181Z,67.16
2014-08-25T01:08:08.855Z,68.18
2014-08-25T01:09:13.841Z,67.89
2014-08-25T01:10:18.516Z,68.38
2014-08-25T01:11:23.502Z,67.34
2014-08-25T01:12:28.192Z,67.07
2014-08-25T01:13:32.881Z,66.52
2014-08-25T01:14:37.555Z,65.95
2014-08-25T01:15:42.245Z,66.57
2014-08-25T01:16:46.919Z,66.64
2014-08-25T01:17:50.921Z,67.13
2014-08-25T01:18:55.596Z,66.27
2014-08-25T01:20:00.269Z,65.6
2014-08-25T01:21:05.255Z,65.93
2014-08-25T01:22:09.929Z,66.34
2014-08-25T01:23:14.619Z,66.17
2014-08-25T01:24:19.308Z,65.67
2014-08-25T01:25:23.983Z,66.16
2014-08-25T01:26:28.672Z,66.3
2014-08-25T01:27:33.346Z,66.9
2014-08-25T01:28:38.331Z,66.26
2014-08-25T01:29:43.006Z,65.75
2014-08-25T01:30:47.696Z,65.81
2014-08-25T01:31:52.370Z,65.52
2014-08-25T01:32:57.043Z,66.19
2014-08-25T01:34:02.030Z,66.13
2014-08-25T01:35:06.704Z,66.99
2014-08-25T01:36:11.394Z,66.88
2014-08-25T01:37:16.067Z,66.94
2014-08-25T01:38:20.757Z,66.77
2014-08-25T01:39:25.431Z,66.6
2014-08-25T01:40:30.121Z,66.56
2014-08-25T01:41:34.794Z,66.77
2014-08-25T01:42:39.781Z,66.28
2014-08-25T01:43:44.455Z,66.09
2014-08-25T01:44:49.145Z,66.51
2014-08-25T01:45:54.131Z,66.26
2014-08-25T01:46:59.117Z,65.95
2014-08-25T01:48:03.791Z,65.74
2014-08-25T01:49:08.465Z,65.6
2014-08-25T01:50:13.452Z,66.53
2014-08-25T01:51:18.126Z,67.43
2014-08-25T01:52:22.815Z,67.67
2014-08-25T01:53:27.489Z,67.76
2014-08-25T01:54:32.179Z,66.94
2014-08-25T01:55:36.853Z,66.81
2014-08-25T01:56:40.839Z,66.51
2014-08-25T01:57:45.529Z,66.22
2014-08-25T01:58:50.500Z,66.62
2014-08-25T01:59:55.189Z,66.57
2014-08-25T02:00:59.863Z,66.35
2014-08-25T02:02:04.553Z,66.6
2014-08-25T02:03:09.523Z,66.56
2014-08-25T02:04:13.510Z,66.31
2014-08-25T02:05:18.199Z,67.18
2014-08-25T02:06:23.186Z,66.76
2014-08-25T02:07:27.876Z,67.41
2014-08-25T02:08:32.846Z,67.96
2014-08-25T02:09:37.535Z,68.16
2014-08-25T02:10:42.210Z,68.19
2014-08-25T02:11:47.477Z,67.98
2014-08-25T02:12:52.167Z,68
2014-08-25T02:13:56.841Z,68.06
2014-08-25T02:15:01.531Z,68.27
2014-08-25T02:16:06.205Z,68.07
2014-08-25T02:17:10.878Z,68.12
2014-08-25T02:18:15.568Z,68.45
2014-08-25T02:19:20.242Z,67.7
2014-08-25T02:20:24.931Z,68.51
2014-08-25T02:21:29.605Z,68.47
2014-08-25T02:22:34.295Z,68.62
2014-08-25T02:23:38.970Z,68.63
2014-08-25T02:24:43.956Z,68.48
2014-08-25T02:25:48.629Z,68.47
2014-08-25T02:26:53.913Z,67.9
2014-08-25T02:27:58.587Z,68.29
2014-08-25T02:29:03.261Z,68.6
2014-08-25T02:30:07.949Z,68.13
2014-08-25T02:31:12.921Z,68.17
2014-08-25T02:32:17.611Z,67.47
2014-08-25T02:33:22.581Z,67.08
2014-08-25T02:34:27.271Z,66.84
2014-08-25T02:35:31.945Z,67.13
2014-08-25T02:36:36.635Z,67.85
2014-08-25T02:37:41.308Z,68.15
2014-08-25T02:38:45.982Z,68.23
2014-08-25T02:39:50.672Z,67.68
2014-08-25T02:40:55.346Z,67.89
2014-08-25T02:42:00.333Z,67.58
2014-08-25T02:43:05.007Z,67.37
2014-08-25T02:44:09.696Z,67.36
2014-08-25T02:45:14.370Z,66.87
2014-08-25T02:46:19.122Z,66.9
2014-08-25T02:47:23.796Z,66.67
2014-08-25T02:48:29.080Z,66.37
2014-08-25T02:49:33.753Z,66.55
2014-08-25T02:50:38.427Z,67.6
2014-08-25T02:51:43.413Z,68.2
2014-08-25T02:52:48.087Z,68.69
2014-08-25T02:53:53.355Z,68.46
2014-08-25T02:54:58.045Z,68.31
2014-08-25T02:56:02.719Z,67.94
2014-08-25T02:57:07.409Z,67.21
2014-08-25T02:58:12.082Z,67.02
2014-08-25T02:59:16.772Z,67.15
2014-08-25T03:00:21.446Z,67.83
2014-08-25T03:01:26.120Z,68.41
2014-08-25T03:02:30.825Z,68.67
2014-08-25T03:03:35.796Z,68.05
2014-08-25T03:04:40.486Z,67.1
2014-08-25T03:05:45.753Z,66.64
2014-08-25T03:06:50.443Z,66.64
2014-08-25T03:07:55.116Z,66.53
2014-08-25T03:08:59.806Z,66.45
2014-08-25T03:10:04.480Z,66.09
2014-08-25T03:11:09.170Z,66.41
2014-08-25T03:12:14.140Z,66.69
2014-08-25T03:13:18.830Z,66.98
2014-08-25T03:14:23.801Z,67.35
2014-08-25T03:15:28.490Z,66.79
2014-08-25T03:16:33.477Z,66.71
2014-08-25T03:17:38.151Z,66.79
2014-08-25T03:18:42.841Z,66.74
2014-08-25T03:19:47.514Z,67.09
2014-08-25T03:20:52.204Z,68
2014-08-25T03:21:57.472Z,67.24
2014-08-25T03:23:02.161Z,67.07
2014-08-25T03:24:06.836Z,66.53
2014-08-25T03:25:11.555Z,66.14
2014-08-25T03:26:16.527Z,66.33
2014-08-25T03:27:21.201Z,66.45
2014-08-25T03:28:25.890Z,66.46
2014-08-25T03:29:30.564Z,66.26
2014-08-25T03:30:35.254Z,66.67
2014-08-25T03:31:40.225Z,67.47
2014-08-25T03:32:45.211Z,67.89
2014-08-25T03:33:50.182Z,67.51
2014-08-25T03:34:54.872Z,66.39
2014-08-25T03:35:59.842Z,66.26
2014-08-25T03:37:04.828Z,67.87
2014-08-25T03:38:09.503Z,67.45
2014-08-25T03:39:14.490Z,66.85
2014-08-25T03:40:19.460Z,66.91
2014-08-25T03:41:24.150Z,67.17
2014-08-25T03:42:29.433Z,68.25
2014-08-25T03:43:34.107Z,68.58
2014-08-25T03:44:39.093Z,68.17
2014-08-25T03:45:43.080Z,67.22
2014-08-25T03:46:47.769Z,66.88
2014-08-25T03:47:52.756Z,67.54
2014-08-25T03:48:57.430Z,68.51
2014-08-25T03:50:02.119Z,69.09
2014-08-25T03:51:07.090Z,69.36
2014-08-25T03:52:11.780Z,69.15
2014-08-25T03:53:16.750Z,68
2014-08-25T03:54:21.439Z,67.63
2014-08-25T03:55:26.114Z,67.66
2014-08-25T03:56:30.803Z,67.8
2014-08-25T03:57:35.477Z,67.57
2014-08-25T03:58:40.167Z,67.48
2014-08-25T03:59:44.154Z,67.31
2014-08-25T04:00:49.140Z,67.31
2014-08-25T04:01:53.829Z,67.23
2014-08-25T04:02:58.503Z,67.13
2014-08-25T04:04:03.193Z,66.86
2014-08-25T04:05:07.867Z,66.98
2014-08-25T04:06:12.557Z,67.29
2014-08-25T04:07:17.230Z,68.1
2014-08-25T04:08:21.921Z,68.24
2014-08-25T04:09:26.907Z,68.14
2014-08-25T04:10:31.580Z,68.19
2014-08-25T04:11:36.270Z,67.88
2014-08-25T04:12:40.960Z,68.16
2014-08-25T04:13:45.633Z,67.85
2014-08-25T04:14:50.620Z,67.7
2014-08-25T04:15:55.294Z,67.69
2014-08-25T04:17:00.280Z,67.52
2014-08-25T04:18:04.954Z,67.94
2014-08-25T04:19:09.644Z,67.71
2014-08-25T04:20:14.350Z,67.68
2014-08-25T04:21:19.023Z,67.51
2014-08-25T04:22:24.010Z,67.18
2014-08-25T04:23:28.980Z,67.25
2014-08-25T04:24:33.670Z,67.65
2014-08-25T04:25:38.359Z,68.24
2014-08-25T04:26:43.048Z,68.47
2014-08-25T04:27:47.723Z,68.17
2014-08-25T04:28:52.428Z,67.81
2014-08-25T04:29:57.102Z,68.72
2014-08-25T04:31:01.792Z,68.19
2014-08-25T04:32:06.467Z,68.91
2014-08-25T04:33:11.155Z,69.14
2014-08-25T04:34:15.829Z,70.24
2014-08-25T04:35:20.518Z,70.08
2014-08-25T04:36:25.489Z,68.29
2014-08-25T04:37:30.477Z,69.11
2014-08-25T04:38:35.150Z,68.88
2014-08-25T04:39:39.839Z,68.91
2014-08-25T04:40:44.825Z,68.51
2014-08-25T04:41:49.500Z,68.43
2014-08-25T04:42:54.190Z,68.6
2014-08-25T04:43:59.160Z,69.01
2014-08-25T04:45:03.850Z,68.81
2014-08-25T04:46:08.524Z,68.18
2014-08-25T04:47:13.526Z,67.91
2014-08-25T04:48:18.215Z,67.96
2014-08-25T04:49:22.889Z,67.66
2014-08-25T04:50:27.579Z,67.49
2014-08-25T04:51:32.254Z,67.99
2014-08-25T04:52:36.943Z,67.9
2014-08-25T04:53:41.616Z,67.96
2014-08-25T04:54:46.603Z,67.62
2014-08-25T04:55:51.277Z,68.43
2014-08-25T04:56:56.264Z,67.79
2014-08-25T04:58:01.250Z,67.22
2014-08-25T04:59:05.924Z,67.24
2014-08-25T05:00:10.613Z,67.13
2014-08-25T05:01:15.303Z,67.3
2014-08-25T05:02:19.977Z,67.56
2014-08-25T05:03:24.667Z,67.73
2014-08-25T05:04:29.637Z,68
2014-08-25T05:05:34.326Z,68.03
2014-08-25T05:06:39.126Z,67.82
2014-08-25T05:07:43.816Z,68.1
2014-08-25T05:08:48.786Z,67.97
2014-08-25T05:09:53.773Z,68.39
2014-08-25T05:10:58.446Z,69.53
2014-08-25T05:12:03.135Z,69.69
2014-08-25T05:13:07.810Z,69.32
2014-08-25T05:14:12.500Z,70.07
2014-08-25T05:15:17.470Z,69.46
2014-08-25T05:16:22.160Z,68.7
2014-08-25T05:17:26.834Z,69.25
2014-08-25T05:18:31.523Z,69.47
2014-08-25T05:19:36.197Z,69.14
2014-08-25T05:20:41.185Z,69.23
2014-08-25T05:21:45.858Z,69.23
2014-08-25T05:22:50.548Z,69.82
2014-08-25T05:23:55.221Z,69.55
2014-08-25T05:25:00.505Z,68.95
2014-08-25T05:26:05.476Z,68.56
2014-08-25T05:27:10.461Z,68.85
2014-08-25T05:28:15.433Z,68.31
2014-08-25T05:29:20.122Z,67.7
2014-08-25T05:30:24.796Z,67.84
2014-08-25T05:31:29.783Z,69.04
2014-08-25T05:32:34.754Z,68.99
2014-08-25T05:33:39.443Z,69.16
2014-08-25T05:34:44.132Z,69.35
2014-08-25T05:35:49.103Z,68.63
2014-08-25T05:36:54.090Z,68.79
2014-08-25T05:37:58.764Z,69.24
2014-08-25T05:39:04.048Z,69.45
2014-08-25T05:40:08.722Z,69.14
2014-08-25T05:41:14.005Z,69.31
2014-08-25T05:42:18.678Z,69.17
2014-08-25T05:43:23.353Z,69.7
2014-08-25T05:44:28.339Z,69.18
2014-08-25T05:45:33.013Z,68.93
2014-08-25T05:46:37.702Z,69.82
2014-08-25T05:47:42.673Z,70
2014-08-25T05:48:47.347Z,70.27
2014-08-25T05:49:52.334Z,70.06
2014-08-25T05:50:57.008Z,70.44
2014-08-25T05:52:01.681Z,69.94
2014-08-25T05:53:06.372Z,68.9
2014-08-25T05:54:11.342Z,69.32
2014-08-25T05:55:16.032Z,69.22
2014-08-25T05:56:20.705Z,69.53
2014-08-25T05:57:25.395Z,69.64
2014-08-25T05:58:30.069Z,68.92
2014-08-25T05:59:34.743Z,68.3
2014-08-25T06:00:40.026Z,68.49
2014-08-25T06:01:44.700Z,68.68
2014-08-25T06:02:49.390Z,68.39
2014-08-25T06:03:54.064Z,68.2
2014-08-25T06:04:58.738Z,68.13
2014-08-25T06:06:03.428Z,68.03
2014-08-25T06:07:08.101Z,67.76
2014-08-25T06:08:12.791Z,68.4
2014-08-25T06:09:17.465Z,68.67
2014-08-25T06:10:22.450Z,68.2
2014-08-25T06:11:27.125Z,68.65
2014-08-25T06:12:31.799Z,69.6
2014-08-25T06:13:36.489Z,69.73
2014-08-25T06:14:41.459Z,69.56
2014-08-25T06:15:46.446Z,68.94
2014-08-25T06:16:51.120Z,68.18
2014-08-25T06:17:56.404Z,68.04
2014-08-25T06:19:01.077Z,67.31
2014-08-25T06:20:06.064Z,67.48
2014-08-25T06:21:11.034Z,67.19
2014-08-25T06:22:16.020Z,66.83
2014-08-25T06:23:20.992Z,66.24
2014-08-25T06:24:25.682Z,65.81
2014-08-25T06:25:30.652Z,65.41
2014-08-25T06:26:35.326Z,65.88
2014-08-25T06:27:40.016Z,66.27
2014-08-25T06:28:44.690Z,66.63
2014-08-25T06:29:49.379Z,67.93
2014-08-25T06:30:54.053Z,67.76
2014-08-25T06:31:58.743Z,68.26
2014-08-25T06:33:03.416Z,68.36
2014-08-25T06:34:08.403Z,67.76
2014-08-25T06:35:13.078Z,67.56
2014-08-25T06:36:17.767Z,67.91
2014-08-25T06:37:22.440Z,68.16
2014-08-25T06:38:27.130Z,67.96
2014-08-25T06:39:32.414Z,67.33
2014-08-25T06:40:37.088Z,66.13
2014-08-25T06:41:41.777Z,65.97
2014-08-25T06:42:46.451Z,65.51
2014-08-25T06:43:51.437Z,64.54
2014-08-25T06:44:56.111Z,64.41
2014-08-25T06:46:00.801Z,64.32
2014-08-25T06:47:05.476Z,63.78
2014-08-25T06:48:10.165Z,64.36
2014-08-25T06:49:15.135Z,64.34
2014-08-25T06:50:20.122Z,64.13
2014-08-25T06:51:24.795Z,63.89
2014-08-25T06:52:29.766Z,63.92
2014-08-25T06:53:34.456Z,63.83
2014-08-25T06:54:39.443Z,64.38
2014-08-25T06:55:44.117Z,62.24
2014-08-25T06:56:48.806Z,62.37
2014-08-25T06:57:53.777Z,62.72
2014-08-25T06:58:58.763Z,63.41
2014-08-25T07:00:03.437Z,64.04
2014-08-25T07:01:08.111Z,65.21
2014-08-25T07:02:13.097Z,65.37
2014-08-25T07:03:17.771Z,64.71
2014-08-25T07:04:21.773Z,64.72
2014-08-25T07:05:26.447Z,65.2
2014-08-25T07:06:31.137Z,64.38
2014-08-25T07:07:36.108Z,64.54
2014-08-25T07:08:41.095Z,64.74
2014-08-25T07:09:45.769Z,64.51
2014-08-25T07:10:50.458Z,64.55
2014-08-25T07:11:55.132Z,64.07
2014-08-25T07:12:59.806Z,62.78
2014-08-25T07:14:04.495Z,62.91
2014-08-25T07:15:09.169Z,63.57
2014-08-25T07:16:14.157Z,62.7
2014-08-25T07:17:19.127Z,63.18
2014-08-25T07:18:23.816Z,62.98
2014-08-25T07:19:28.490Z,62.38
2014-08-25T07:20:33.180Z,62.32
2014-08-25T07:21:38.150Z,61.64
2014-08-25T07:22:42.824Z,61.33
2014-08-25T07:23:47.810Z,61.27
2014-08-25T07:24:52.485Z,60.73
2014-08-25T07:25:57.159Z,59.55
2014-08-25T07:27:01.848Z,60.83
2014-08-25T07:28:06.522Z,60.63
2014-08-25T07:29:11.212Z,60.33
2014-08-25T07:30:16.183Z,60.7
2014-08-25T07:31:20.872Z,60.67
2014-08-25T07:32:25.858Z,59.86
2014-08-25T07:33:30.533Z,60.19
2014-08-25T07:34:35.519Z,61.46
2014-08-25T07:35:40.194Z,60.81
2014-08-25T07:36:44.883Z,60.84
2014-08-25T07:37:49.556Z,60.67
2014-08-25T07:38:54.245Z,61.12
2014-08-25T07:39:58.920Z,61.12
2014-08-25T07:41:03.610Z,61.96
2014-08-25T07:42:08.581Z,62.09
2014-08-25T07:43:13.270Z,61.77
2014-08-25T07:44:17.944Z,61.65
2014-08-25T07:45:22.633Z,61.84
2014-08-25T07:46:27.307Z,62.23
2014-08-25T07:47:32.294Z,63.01
2014-08-25T07:48:36.969Z,62.62
2014-08-25T07:49:41.657Z,63.65
2014-08-25T07:50:46.331Z,64.36
2014-08-25T07:51:51.020Z,63.93
2014-08-25T07:52:55.695Z,62.67
2014-08-25T07:54:00.682Z,62.59
2014-08-25T07:55:05.652Z,63.88
2014-08-25T07:56:10.342Z,63.92
2014-08-25T07:57:15.016Z,64.14
2014-08-25T07:58:19.705Z,63.66
2014-08-25T07:59:24.379Z,64.5
2014-08-25T08:00:29.069Z,64.11
2014-08-25T08:01:33.744Z,63.93
2014-08-25T08:02:38.729Z,64.49
2014-08-25T08:03:43.403Z,64.85
2014-08-25T08:04:48.093Z,63.92
2014-08-25T08:05:52.783Z,63.57
2014-08-25T08:06:57.456Z,64.14
2014-08-25T08:08:02.162Z,63.76
2014-08-25T08:09:06.835Z,62.88
2014-08-25T08:10:11.525Z,62.61
2014-08-25T08:11:16.199Z,62.94
2014-08-25T08:12:20.889Z,63.54
2014-08-25T08:13:25.562Z,62.81
2014-08-25T08:14:30.252Z,61.9
2014-08-25T08:15:34.926Z,60.9
2014-08-25T08:16:39.615Z,60.71
2014-08-25T08:17:44.305Z,60.39
2014-08-25T08:18:48.979Z,60.02
2014-08-25T08:19:53.965Z,59.99
2014-08-25T08:20:58.656Z,58.93
2014-08-25T08:22:03.345Z,58.55
2014-08-25T08:23:08.018Z,58.62
2014-08-25T08:24:12.708Z,58.36
2014-08-25T08:25:17.382Z,58.48
2014-08-25T08:26:22.368Z,58.73
2014-08-25T08:27:27.058Z,58.28
2014-08-25T08:28:32.029Z,60.23
2014-08-25T08:29:36.718Z,59.27
2014-08-25T08:30:41.392Z,58.85
2014-08-25T08:31:46.082Z,59.06
2014-08-25T08:32:51.068Z,58.63
2014-08-25T08:33:55.758Z,58.23
2014-08-25T08:35:00.729Z,58.79
2014-08-25T08:36:05.715Z,58.48
2014-08-25T08:37:10.404Z,58.57
2014-08-25T08:38:15.376Z,57.61
2014-08-25T08:39:20.066Z,56.99
2014-08-25T08:40:24.068Z,57.32
2014-08-25T08:41:28.741Z,58.19
2014-08-25T08:42:33.431Z,57.44
2014-08-25T08:43:38.105Z,57.8
2014-08-25T08:44:43.091Z,58.08
2014-08-25T08:45:47.781Z,57.4
2014-08-25T08:46:52.471Z,57.99
2014-08-25T08:47:57.144Z,58.38
2014-08-25T08:49:02.131Z,57.29
2014-08-25T08:50:06.820Z,57.58
2014-08-25T08:51:11.509Z,57.69
2014-08-25T08:52:16.184Z,57.64
2014-08-25T08:53:21.170Z,57.77
2014-08-25T08:54:25.860Z,57.76
2014-08-25T08:55:30.550Z,57.98
2014-08-25T08:56:35.520Z,57.55
2014-08-25T08:57:40.210Z,55.82
2014-08-25T08:58:45.196Z,54.73
2014-08-25T08:59:49.886Z,54.75
2014-08-25T09:00:54.575Z,55.37
2014-08-25T09:01:59.562Z,55.7
2014-08-25T09:03:04.268Z,55.02
2014-08-25T09:04:08.941Z,55.12
2014-08-25T09:05:13.927Z,53.77
2014-08-25T09:06:18.618Z,53.11
2014-08-25T09:07:23.307Z,52.98
2014-08-25T09:08:27.980Z,51.79
2014-08-25T09:09:32.670Z,52.99
2014-08-25T09:10:37.657Z,53.51
2014-08-25T09:11:42.345Z,53.34
2014-08-25T09:12:47.317Z,54.41
2014-08-25T09:13:52.007Z,54.19
2014-08-25T09:14:56.993Z,54.24
2014-08-25T09:16:01.682Z,52.64
2014-08-25T09:17:06.669Z,52.17
2014-08-25T09:18:11.358Z,52.22
2014-08-25T09:19:16.329Z,51.39
2014-08-25T09:20:21.035Z,51.8
2014-08-25T09:21:26.021Z,53.43
2014-08-25T09:22:30.711Z,53.14
2014-08-25T09:23:35.682Z,53.11
2014-08-25T09:24:40.371Z,52.84
2014-08-25T09:25:45.061Z,52.62
2014-08-25T09:26:50.046Z,52.57
2014-08-25T09:27:55.034Z,52.46
2014-08-25T09:28:59.723Z,54.34
2014-08-25T09:30:04.413Z,53.92
2014-08-25T09:31:09.087Z,54.65
2014-08-25T09:32:13.776Z,53.73
2014-08-25T09:33:18.466Z,52.53
2014-08-25T09:34:23.452Z,51.68
2014-08-25T09:35:28.438Z,51.94
2014-08-25T09:36:33.426Z,53.07
2014-08-25T09:37:38.111Z,52.41
2014-08-25T09:38:42.843Z,51.47
2014-08-25T09:39:47.574Z,52.14
2014-08-25T09:40:52.603Z,50.88
2014-08-25T09:41:57.318Z,50.13
2014-08-25T09:43:02.032Z,50.86
2014-08-25T09:44:06.737Z,49.65
2014-08-25T09:45:11.738Z,50.87
2014-08-25T09:46:16.427Z,52.11
2014-08-25T09:47:21.131Z,51
2014-08-25T09:48:25.826Z,50.86
2014-08-25T09:49:30.505Z,50.68
2014-08-25T09:50:35.200Z,50.34
2014-08-25T09:51:39.895Z,50
2014-08-25T09:52:44.573Z,51.43
2014-08-25T09:53:49.312Z,50.04
2014-08-25T09:54:53.988Z,50.4
2014-08-25T09:55:58.679Z,49.71
2014-08-25T09:57:03.668Z,50.45
2014-08-25T09:58:08.656Z,50.21
2014-08-25T09:59:13.346Z,51.44
2014-08-25T10:00:18.022Z,50.32
2014-08-25T10:01:22.711Z,49.63
2014-08-25T10:02:27.402Z,49.77
2014-08-25T10:03:32.389Z,49.81
2014-08-25T10:04:37.077Z,49.68
2014-08-25T10:05:42.049Z,50.21
2014-08-25T10:06:46.739Z,50.7
2014-08-25T10:07:51.429Z,50.31
2014-08-25T10:08:56.119Z,49.6
2014-08-25T10:10:01.090Z,49.48
2014-08-25T10:11:06.076Z,49.34
2014-08-25T10:12:10.766Z,49.32
2014-08-25T10:13:15.455Z,49.75
2014-08-25T10:14:20.144Z,49.77
2014-08-25T10:15:25.116Z,49.18
2014-08-25T10:16:29.806Z,48.78
2014-08-25T10:17:34.495Z,49.01
2014-08-25T10:18:39.185Z,47.65
2014-08-25T10:19:43.874Z,48.55
2014-08-25T10:20:48.548Z,48.6
2014-08-25T10:21:53.534Z,48.6
2014-08-25T10:22:58.224Z,49.18
2014-08-25T10:24:02.913Z,48.18
2014-08-25T10:25:07.900Z,47.13
2014-08-25T10:26:12.575Z,47.12
2014-08-25T10:27:17.263Z,46.84
2014-08-25T10:28:21.953Z,47
2014-08-25T10:29:26.940Z,45.95
2014-08-25T10:30:31.925Z,45.78
2014-08-25T10:31:36.600Z,46.06
2014-08-25T10:32:41.289Z,46.16
2014-08-25T10:33:46.009Z,45.87
2014-08-25T10:34:49.997Z,47.07
2014-08-25T10:35:55.280Z,46.58
2014-08-25T10:36:59.970Z,47.23
2014-08-25T10:38:04.643Z,45.94
2014-08-25T10:39:09.333Z,45.04
2014-08-25T10:40:14.007Z,45.88
2014-08-25T10:41:18.696Z,46.02
2014-08-25T10:42:23.386Z,46.11
2014-08-25T10:43:28.060Z,47.04
2014-08-25T10:44:32.359Z,45.52
2014-08-25T10:45:37.048Z,44.91
2014-08-25T10:46:41.051Z,42.76
2014-08-25T10:47:45.724Z,41.97
2014-08-25T10:48:50.711Z,42.35
2014-08-25T10:49:55.385Z,41.23
2014-08-25T10:51:00.074Z,42.33
2014-08-25T10:52:04.764Z,43.96
2014-08-25T10:53:09.438Z,41.19
2014-08-25T10:54:14.129Z,41.86
2014-08-25T10:55:18.817Z,42.1
2014-08-25T10:56:23.491Z,41.7
2014-08-25T10:57:28.181Z,41.45
2014-08-25T10:58:32.855Z,42.16
2014-08-25T10:59:37.544Z,42.61
2014-08-25T11:00:42.233Z,42.45
2014-08-25T11:01:46.908Z,41.9
2014-08-25T11:02:51.597Z,40.85
2014-08-25T11:03:56.272Z,41.01
2014-08-25T11:05:00.961Z,41.78
2014-08-25T11:06:05.947Z,40.66
2014-08-25T11:07:10.637Z,40.22
2014-08-25T11:08:15.326Z,41.62
2014-08-25T11:09:20.000Z,41.33
2014-08-25T11:10:24.690Z,42.6
2014-08-25T11:11:29.676Z,41.02
2014-08-25T11:12:34.350Z,41.55
2014-08-25T11:13:39.041Z,40.55
2014-08-25T11:14:43.729Z,39.59
2014-08-25T11:15:48.419Z,40.98
2014-08-25T11:16:53.093Z,40.31
2014-08-25T11:17:57.783Z,42.05
2014-08-25T11:19:02.471Z,41.14
2014-08-25T11:20:07.146Z,40.02
2014-08-25T11:21:11.836Z,40.28
2014-08-25T11:22:16.524Z,40.49
2014-08-25T11:23:21.512Z,39.32
2014-08-25T11:24:26.187Z,38.54
2014-08-25T11:25:30.875Z,39.01
2014-08-25T11:26:35.549Z,39.99
2014-08-25T11:27:40.239Z,36.85
2014-08-25T11:28:44.928Z,37.84
2014-08-25T11:29:49.617Z,36.8
2014-08-25T11:30:54.292Z,37.24
2014-08-25T11:31:58.981Z,39.13
2014-08-25T11:33:03.655Z,37.5
2014-08-25T11:34:08.345Z,37.47
2014-08-25T11:35:13.035Z,39.09
2014-08-25T11:36:17.709Z,39.14
2014-08-25T11:37:22.398Z,40.53
2014-08-25T11:38:27.103Z,40.91
2014-08-25T11:39:31.777Z,41.28
2014-08-25T11:40:36.467Z,40.75
2014-08-25T11:41:41.141Z,39.8
2014-08-25T11:42:45.142Z,38.7
2014-08-25T11:43:49.817Z,38.27
2014-08-25T11:44:54.506Z,38.85
2014-08-25T11:45:59.493Z,38.83
2014-08-25T11:47:04.182Z,37.96
2014-08-25T11:48:08.857Z,39.66
2014-08-25T11:49:13.843Z,38.98
2014-08-25T11:50:18.531Z,38.5
2014-08-25T11:51:23.503Z,40.1
2014-08-25T11:52:28.193Z,38.43
2014-08-25T11:53:32.179Z,37.69
2014-08-25T11:54:36.869Z,37.64
2014-08-25T11:55:41.558Z,39.88
2014-08-25T11:56:46.544Z,39.36
2014-08-25T11:57:51.531Z,38.55
2014-08-25T11:58:56.205Z,38.76
2014-08-25T12:00:00.894Z,39.39
2014-08-25T12:01:05.881Z,38.65
2014-08-25T12:02:10.571Z,37.14
2014-08-25T12:03:15.260Z,38.38
2014-08-25T12:04:19.934Z,39.5
2014-08-25T12:05:24.624Z,40.57
2014-08-25T12:06:29.610Z,39.19
2014-08-25T12:07:34.284Z,37.86
2014-08-25T12:08:38.974Z,37.86
2014-08-25T12:09:43.648Z,37.73
2014-08-25T12:10:48.337Z,37.99
2014-08-25T12:11:53.324Z,37.25
2014-08-25T12:12:58.310Z,36.91
2014-08-25T12:14:02.984Z,37.59
2014-08-25T12:15:07.673Z,36.51
2014-08-25T12:16:12.363Z,37.66
2014-08-25T12:17:17.038Z,36.88
2014-08-25T12:18:22.024Z,36.48
2014-08-25T12:19:26.712Z,37.27
2014-08-25T12:20:31.387Z,38.67
2014-08-25T12:21:36.077Z,41.25
2014-08-25T12:22:40.750Z,36.91
2014-08-25T12:23:45.440Z,38.75
2014-08-25T12:24:50.130Z,39.23
2014-08-25T12:25:55.117Z,38.32
2014-08-25T12:26:59.790Z,37.96
2014-08-25T12:28:04.480Z,37.76
2014-08-25T12:29:09.185Z,37.82
2014-08-25T12:30:13.874Z,38.57
2014-08-25T12:31:18.860Z,38.23
2014-08-25T12:32:23.535Z,38.63
2014-08-25T12:33:28.224Z,38.49
2014-08-25T12:34:33.210Z,38.82
2014-08-25T12:35:37.885Z,40.08
2014-08-25T12:36:42.575Z,39.43
2014-08-25T12:37:47.264Z,37.74
2014-08-25T12:38:52.250Z,37.67
2014-08-25T12:39:56.924Z,37.95
2014-08-25T12:41:01.614Z,38.02
2014-08-25T12:42:06.288Z,37.93
2014-08-25T12:43:10.977Z,38.08
2014-08-25T12:44:15.667Z,40.28
2014-08-25T12:45:20.638Z,39.62
2014-08-25T12:46:25.327Z,38.28
2014-08-25T12:47:30.016Z,39.23
2014-08-25T12:48:34.691Z,38.51
2014-08-25T12:49:39.380Z,38.34
2014-08-25T12:50:44.367Z,38.99
2014-08-25T12:51:49.041Z,39.45
2014-08-25T12:52:53.731Z,40.29
2014-08-25T12:53:58.436Z,40.24
2014-08-25T12:55:03.110Z,39.38
2014-08-25T12:56:07.799Z,40.36
2014-08-25T12:57:12.489Z,40.29
2014-08-25T12:58:17.163Z,39.99
2014-08-25T12:59:21.852Z,41.05
2014-08-25T13:00:26.541Z,41.34
2014-08-25T13:01:31.216Z,40.22
2014-08-25T13:02:36.202Z,40.57
2014-08-25T13:03:40.892Z,41.44
2014-08-25T13:04:45.879Z,42.21
2014-08-25T13:05:50.568Z,43.43
2014-08-25T13:06:55.242Z,41.45
2014-08-25T13:07:59.931Z,41.44
2014-08-25T13:09:04.621Z,42.01
2014-08-25T13:10:09.310Z,40.39
2014-08-25T13:11:14.297Z,40.3
2014-08-25T13:12:18.986Z,41.11
2014-08-25T13:13:23.676Z,41.65
2014-08-25T13:14:28.366Z,40.26
2014-08-25T13:15:33.070Z,41.52
2014-08-25T13:16:38.057Z,42
2014-08-25T13:17:43.044Z,41.25
2014-08-25T13:18:47.733Z,42.79
2014-08-25T13:19:52.423Z,42.44
2014-08-25T13:20:57.097Z,41.55
2014-08-25T13:22:01.787Z,42.48
2014-08-25T13:23:06.757Z,42.78
2014-08-25T13:24:11.446Z,40.44
2014-08-25T13:25:16.432Z,40.44
2014-08-25T13:26:21.106Z,40.71
2014-08-25T13:27:25.796Z,41.79
2014-08-25T13:28:30.469Z,42.05
2014-08-25T13:29:35.456Z,41.05
2014-08-25T13:30:40.145Z,41.58
2014-08-25T13:31:44.819Z,41.32
2014-08-25T13:32:49.510Z,41.29
2014-08-25T13:33:54.200Z,41.41
2014-08-25T13:34:58.874Z,40.97
2014-08-25T13:36:03.860Z,42.59
2014-08-25T13:37:08.847Z,41.56
2014-08-25T13:38:13.536Z,41.96
2014-08-25T13:39:18.210Z,43.19
2014-08-25T13:40:22.900Z,42.56
2014-08-25T13:41:27.590Z,43.1
2014-08-25T13:42:32.263Z,42.64
2014-08-25T13:43:36.954Z,42.02
2014-08-25T13:44:41.643Z,41.07
2014-08-25T13:45:46.613Z,41.86
2014-08-25T13:46:51.303Z,42.02
2014-08-25T13:47:55.993Z,43.05
2014-08-25T13:49:00.681Z,42.15
2014-08-25T13:50:05.653Z,42.09
2014-08-25T13:51:10.343Z,41.96
2014-08-25T13:52:15.032Z,41.36
2014-08-25T13:53:20.018Z,41.39
2014-08-25T13:54:24.692Z,40.82
2014-08-25T13:55:29.382Z,42.54
2014-08-25T13:56:34.368Z,41.49